Flight Track Log - Related Links

Times and Time Zones

All times are in EDT time to prevent confusion due to time zone crossing. See the JBU1269 flight status page for this flight to view local times or setup timezone preferences in your user account.

Time Position Orientation Groundspeed Altitude Reporting Facility
EDT Latitude Longitude Course Direction KTS MPH feet Rate Location/Type
Sun 09:26:27 PM 42.3500 -70.9833 200° South 153 176 900  Level KA90
Sun 09:27:52 PM 42.3167 -70.9000 118° Southeast 260 299 3,700 2,731 Climbing KA90
Sun 09:28:52 PM 42.3333 -70.8000 77° East 281 323 7,500 3,500 Climbing KA90
Sun 09:29:00 PM 42.3279 -70.7012 164° South  Level FlightAware Approximate
Sun 09:29:52 PM 42.3000 -70.7000 114° Southeast 288 331 10,700  Level KA90
Sun 09:30:00 PM 42.2195 -70.6431 160° South  Level FlightAware Approximate
Sun 09:31:00 PM 42.1093 -70.6120 200° South  Level FlightAware Approximate
Sun 09:31:07 PM 42.2069 -70.6461 157° South 351 404 12,800  Level Boston Center
Sun 09:32:06 PM 42.1128 -70.6267 171° South 344 396 15,400 2,462 Climbing Boston Center
Sun 09:33:04 PM 42.0136 -70.6742 200° South 348 400 17,600 2,339 Climbing Boston Center
Sun 09:34:04 PM 41.8975 -70.7219 197° South 383 441 20,000 2,250 Climbing Boston Center
Sun 09:35:04 PM 41.7964 -70.7778 202° Southwest 395 455 22,100 1,950 Climbing Boston Center
Sun 09:36:04 PM 41.6950 -70.8442 206° Southwest 401 461 23,900 1,623 Climbing Boston Center
Sun 09:37:06 PM 41.6086 -70.9214 214° Southwest 412 474 25,400 1,438 Climbing Boston Center
Sun 09:38:05 PM 41.5161 -71.0178 218° Southwest 425 489 26,800 1,400 Climbing Boston Center
Sun 09:39:06 PM 41.4383 -71.1442 231° Southwest 425 489 28,200 1,563 Climbing Boston Center
Sun 09:40:04 PM 41.3647 -71.2731 233° Southwest 437 503 29,900 2,034 Climbing Boston Center
Sun 09:41:04 PM 41.2869 -71.3931 229° Southwest 437 503 32,200 2,200 Climbing Boston Center
Sun 09:42:04 PM 41.2128 -71.5075 229° Southwest 432 497 34,300 1,574 Climbing Boston Center
Sun 09:43:06 PM 41.1450 -71.6408 236° Southwest 417 480 35,400 900 Climbing Boston Center
Sun 09:44:04 PM 41.1000 -71.7736 246° West 406 467 36,100 966 Climbing Boston Center
Sun 09:45:04 PM 41.0319 -71.8953 233° Southwest 406 467 37,300 942 Climbing Boston Center
Sun 09:46:05 PM 40.9492 -72.0058 225° Southwest 414 476 38,000 347 Climbing Boston Center
Sun 09:47:05 PM 40.8661 -72.1164 225° Southwest 420 483 38,000  Level Boston Center
Sun 09:48:05 PM 40.7808 -72.2236 224° Southwest 425 489 38,000 -50 Level Boston Center
Sun 09:49:05 PM 40.6936 -72.3253 221° Southwest 425 489 37,900 -50 Descending Boston Center
Sun 09:50:06 PM 40.6164 -72.4319 226° Southwest 420 483 37,900 49 Level Boston Center
Sun 09:51:07 PM 40.5311 -72.5356 223° Southwest 415 478 38,000 51 Climbing Boston Center
Sun 09:52:04 PM 40.4539 -72.6392 226° Southwest 415 478 38,000 -51 Level Boston Center
Sun 09:53:04 PM 40.3703 -72.7425 223° Southwest 409 471 37,900  Descending Boston Center
Sun 09:54:04 PM 40.2950 -72.8428 225° Southwest 404 465 38,000 29 Climbing Boston Center
Sun 09:56:31 PM 40.1061 -73.0853 225° Southwest 395 455 38,000  Level Washington Center
Sun 09:57:30 PM 40.0247 -73.1856 223° Southwest 395 455 38,000  Level Washington Center
Sun 09:58:31 PM 39.9433 -73.2886 224° Southwest 400 460 38,000  Level Washington Center
Sun 09:59:30 PM 39.8619 -73.3886 223° Southwest 400 460 38,000  Level Washington Center
Sun 10:00:31 PM 39.7783 -73.4856 222° Southwest 400 460 38,000  Level Washington Center
Sun 10:01:32 PM 39.6925 -73.5853 222° Southwest 412 474 38,000  Level Washington Center
Sun 10:02:33 PM 39.5872 -73.6528 206° Southwest 417 480 38,000  Level Washington Center
Sun 10:03:31 PM 39.4864 -73.7200 207° Southwest 422 486 38,000  Level Washington Center
Sun 10:04:33 PM 39.3811 -73.7925 208° Southwest 427 491 38,000 -50 Level Washington Center
Sun 10:05:31 PM 39.2778 -73.8594 207° Southwest 427 491 37,900  Descending Washington Center
Sun 10:06:32 PM 39.1706 -73.9317 208° Southwest 427 491 38,000 50 Climbing Washington Center
Sun 10:07:31 PM 39.0569 -74.0039 206° Southwest 427 491 38,000 -50 Level Washington Center
Sun 10:08:32 PM 38.9514 -74.0728 207° Southwest 427 491 37,900  Descending Washington Center
Sun 10:09:32 PM 38.8461 -74.1417 207° Southwest 427 491 38,000 49 Climbing Washington Center
Sun 10:10:34 PM 38.7425 -74.2103 207° Southwest 427 491 38,000  Level Washington Center
Sun 10:11:32 PM 38.6369 -74.2761 206° Southwest 427 491 38,000  Level Washington Center
Sun 10:12:32 PM 38.5336 -74.3442 207° Southwest 427 491 38,000  Level Washington Center
Sun 10:13:31 PM 38.4258 -74.4178 208° Southwest 432 497 38,000  Level Washington Center
Sun 10:14:31 PM 38.3222 -74.4775 204° Southwest 427 491 38,000  Level Washington Center
Sun 10:15:30 PM 38.2164 -74.5506 208° Southwest 427 491 38,000 -50 Level Washington Center
Sun 10:16:32 PM 38.1106 -74.6128 205° Southwest 427 491 37,900  Descending Washington Center
Sun 10:17:33 PM 38.0172 -74.6772 209° Southwest 427 491 38,000 51 Climbing Washington Center
Sun 10:18:30 PM 37.9094 -74.7392 204° Southwest 427 491 38,000 -51 Level Washington Center
Sun 10:19:31 PM 37.8078 -74.8111 209° Southwest 427 491 37,900  Descending Washington Center
Sun 10:20:33 PM 37.6997 -74.8753 205° Southwest 427 491 38,000  Climbing Washington Center
Sun 10:21:32 PM 37.5936 -74.9419 206° Southwest 427 491 37,900  Descending Washington Center
Sun 10:22:32 PM 37.4856 -75.0083 206° Southwest 427 491 38,000 50 Climbing Washington Center
Sun 10:23:33 PM 37.3772 -75.0769 207° Southwest 432 497 38,000  Level Washington Center
Sun 10:24:31 PM 37.2711 -75.1403 205° Southwest 432 497 38,000  Level Washington Center
Sun 10:25:33 PM 37.1608 -75.2089 206° Southwest 432 497 38,000  Level Washington Center
Sun 10:26:31 PM 37.0547 -75.2744 206° Southwest 432 497 38,000  Level Washington Center
Sun 10:27:33 PM 36.9444 -75.3397 205° Southwest 432 497 38,000  Level Washington Center
Sun 10:28:30 PM 36.8358 -75.4050 206° Southwest 432 497 38,000  Level Washington Center
Sun 10:29:31 PM 36.7275 -75.4703 206° Southwest 432 497 38,000 -50 Level Washington Center
Sun 10:30:30 PM 36.6192 -75.5350 206° Southwest 432 497 37,900 -50 Descending Washington Center
Sun 10:31:32 PM 36.5086 -75.6022 206° Southwest 438 504 37,900 50 Level Washington Center
Sun 10:32:30 PM 36.3958 -75.6694 206° Southwest 443 510 38,000 50 Climbing Washington Center
Sun 10:33:31 PM 36.2853 -75.7364 206° Southwest 449 517 38,000  Level Washington Center
Sun 10:34:32 PM 36.1725 -75.8031 206° Southwest 449 517 38,000  Level Washington Center
Sun 10:35:31 PM 36.0575 -75.8747 207° Southwest 449 517 38,000  Level Washington Center
Sun 10:36:31 PM 35.9447 -75.9408 205° Southwest 449 517 38,000  Level Washington Center
Sun 10:37:33 PM 35.8319 -76.0097 206° Southwest 449 517 38,000  Level Washington Center
Sun 10:38:33 PM 35.7189 -76.0706 204° Southwest 449 517 38,000  Level Washington Center
Sun 10:39:33 PM 35.6081 -76.1389 207° Southwest 449 517 38,000 -51 Level Washington Center
Sun 10:40:31 PM 35.4972 -76.2044 206° Southwest 449 517 37,900 -50 Descending Washington Center
Sun 10:41:32 PM 35.3842 -76.2672 204° Southwest 449 517 37,900 49 Level Washington Center
Sun 10:42:33 PM 35.2753 -76.3325 206° Southwest 444 511 38,000 50 Climbing Washington Center
Sun 10:43:32 PM 35.1622 -76.4000 206° Southwest 444 511 38,000 -51 Level Washington Center
Sun 10:44:30 PM 35.0428 -76.4750 207° Southwest 444 511 37,900  Descending Washington Center
Sun 10:45:31 PM 34.9339 -76.5397 206° Southwest 444 511 38,000 50 Climbing Washington Center
Sun 10:46:30 PM 34.8164 -76.6014 203° Southwest 450 518 38,000  Level Washington Center
Sun 10:47:33 PM 34.7011 -76.6683 206° Southwest 455 524 38,000  Level Washington Center
Sun 10:49:53 PM 34.4247 -76.8267 205° Southwest 455 524 38,000  Level Jacksonville Center
Sun 10:50:53 PM 34.3111 -76.8897 205° Southwest 455 524 38,000  Level Jacksonville Center
Sun 10:51:53 PM 34.1953 -76.9556 205° Southwest 455 524 38,000 -50 Level Jacksonville Center
Sun 10:52:53 PM 34.0792 -77.0161 203° Southwest 455 524 37,900 -50 Descending Jacksonville Center
Sun 10:53:53 PM 33.9583 -77.0667 199° South 455 524 37,900  Level Jacksonville Center
Sun 10:54:53 PM 33.8442 -77.1219 202° Southwest 450 518 37,900 50 Level Jacksonville Center
Sun 10:55:53 PM 33.7258 -77.1769 201° Southwest 450 518 38,000 50 Climbing Jacksonville Center
Sun 10:56:53 PM 33.6069 -77.2297 200° South 450 518 38,000  Level Jacksonville Center
Sun 10:57:53 PM 33.4906 -77.2844 201° Southwest 450 518 38,000  Level Jacksonville Center
Sun 10:58:53 PM 33.3700 -77.3392 201° Southwest 455 524 38,000  Level Jacksonville Center
Sun 10:59:53 PM 33.2472 -77.3942 201° Southwest 465 535 38,000  Level Jacksonville Center
Sun 11:00:53 PM 33.1306 -77.4483 201° Southwest 465 535 38,000  Level Jacksonville Center
Sun 11:01:53 PM 33.0117 -77.5003 200° South 459 528 38,000 -50 Level Jacksonville Center
Sun 11:02:53 PM 32.8950 -77.5517 200° South 459 528 37,900 -50 Descending Jacksonville Center
Sun 11:03:53 PM 32.7761 -77.6058 201° Southwest 459 528 37,900 50 Level Jacksonville Center
Sun 11:04:53 PM 32.6594 -77.6594 201° Southwest 459 528 38,000 50 Climbing Jacksonville Center
Sun 11:05:53 PM 32.5386 -77.7156 201° Southwest 459 528 38,000  Level Jacksonville Center
Sun 11:06:53 PM 32.4197 -77.7667 200° South 465 535 38,000  Level Jacksonville Center
Sun 11:07:53 PM 32.2967 -77.8203 200° South 465 535 38,000  Level Jacksonville Center
Sun 11:08:53 PM 32.1797 -77.8733 201° Southwest 465 535 38,000 -50 Level Jacksonville Center
Sun 11:09:53 PM 32.0608 -77.9239 200° South 465 535 37,900 -50 Descending Jacksonville Center
Sun 11:10:53 PM 31.9419 -77.9817 202° Southwest 459 528 37,900 50 Level Jacksonville Center
Sun 11:11:53 PM 31.8250 -78.0319 200° South 459 528 38,000 50 Climbing Jacksonville Center
Sun 11:12:53 PM 31.7019 -78.0922 203° Southwest 466 536 38,000  Level Jacksonville Center
Sun 11:13:53 PM 31.5989 -78.1269 196° South 450 518 38,000 -50 Level Jacksonville Center
Sun 11:14:53 PM 31.4819 -78.1792 201° Southwest 445 512 37,900  Descending Jacksonville Center
Sun 11:15:53 PM 31.3647 -78.2311 201° Southwest 445 512 38,000 50 Climbing Jacksonville Center
Sun 11:16:53 PM 31.2317 -78.3008 204° Southwest 468 539 38,000  Level Jacksonville Center
Sun 11:17:53 PM 31.1103 -78.3506 199° South 460 529 38,000  Level Jacksonville Center
Sun 11:18:53 PM 31.0075 -78.3967 201° Southwest 466 536 38,000  Level Jacksonville Center
Sun 11:20:39 PM 30.8003 -78.4875 201° Southwest 444 511 38,000  Level Miami Center
Sun 11:21:39 PM 30.6769 -78.5386 200° South 451 519 38,000  Level Miami Center
Sun 11:22:41 PM 30.5617 -78.5897 201° Southwest 451 519 38,000  Level Miami Center
Sun 11:23:39 PM 30.4486 -78.6408 201° Southwest 446 513 38,000 -50 Level Miami Center
Sun 11:24:41 PM 30.3269 -78.6867 198° South 459 528 37,900  Descending Miami Center
Sun 11:25:39 PM 30.1992 -78.7444 201° Southwest 451 519 38,000 51 Climbing Miami Center
Sun 11:26:39 PM 30.0775 -78.7928 199° South 450 518 38,000  Level Miami Center
Sun 11:27:39 PM 29.9747 -78.8411 202° Southwest 450 518 38,000  Level Miami Center
Sun 11:28:39 PM 29.8553 -78.8869 198° South 450 518 38,000  Level Miami Center
Sun 11:29:41 PM 29.7397 -78.9372 201° Southwest 450 518 38,000  Level Miami Center
Sun 11:30:39 PM 29.6244 -78.9900 202° Southwest 450 518 38,000  Level Miami Center
Sun 11:31:39 PM 29.5069 -79.0378 199° South 450 518 38,000  Level Miami Center
Sun 11:32:40 PM 29.3872 -79.0831 198° South 450 518 38,000  Level Miami Center
Sun 11:33:40 PM 29.2758 -79.1353 202° Southwest 445 512 38,000  Level Miami Center
Sun 11:34:41 PM 29.1583 -79.1806 199° South 445 512 38,000  Level Miami Center
Sun 11:35:38 PM 29.0447 -79.2328 202° Southwest 445 512 38,000  Level Miami Center
Sun 11:36:39 PM 28.9292 -79.2778 199° South 445 512 38,000  Level Miami Center
Sun 11:37:41 PM 28.8078 -79.3081 192° South 445 512 38,000  Level Miami Center
Sun 11:38:41 PM 28.6842 -79.3339 190° South 445 512 38,000  Level Miami Center
Sun 11:39:39 PM 28.5586 -79.3619 191° South 450 518 38,000 50 Level Miami Center
Sun 11:40:41 PM 28.4350 -79.3897 191° South 456 525 38,100  Climbing Miami Center
Sun 11:41:40 PM 28.3117 -79.3917 181° South 449 517 38,000 -51 Descending Miami Center
Sun 11:42:38 PM 28.1867 -79.3819 176° South 444 511 38,000 -356 Level Miami Center
Sun 11:43:38 PM 28.0678 -79.3722 176° South 439 505 37,300 -1,918 Descending Miami Center
Sun 11:44:40 PM 27.9428 -79.3600 175° South 444 511 34,100 -3,197 Descending Miami Center
Sun 11:45:40 PM 27.8097 -79.3336 170° South 438 504 30,800 -2,237 Descending Miami Center
Sun 11:46:38 PM 27.6994 -79.3006 165° South 448 516 29,700 -1,008 Descending Miami Center
Sun 11:47:39 PM 27.5789 -79.2653 165° South 454 522 28,800 -950 Descending Miami Center
Sun 11:48:38 PM 27.4456 -79.2578 177° South 449 517 27,800 -992 Descending Miami Center
Sun 11:49:40 PM 27.3422 -79.3142 206° Southwest 416 479 26,800 -1,230 Descending Miami Center
Sun 11:50:40 PM 27.2367 -79.3750 207° Southwest 421 484 25,300 -1,932 Descending Miami Center
Sun 11:51:38 PM 27.1439 -79.4289 207° Southwest 421 484 23,000 -2,471 Descending Miami Center
Sun 11:52:39 PM 27.0342 -79.4894 206° Southwest 412 474 20,400 -2,390 Descending Miami Center
Sun 11:53:41 PM 26.9350 -79.5478 208° Southwest 412 474 18,100 -2,231 Descending Miami Center
Sun 11:54:40 PM 26.8422 -79.5992 206° Southwest 398 458 15,900 -2,051 Descending Miami Center
Sun 11:55:38 PM 26.7514 -79.6553 209° Southwest 386 444 14,100 -1,831 Descending Miami Center
Sun 11:56:38 PM 26.6711 -79.7000 206° Southwest 352 405 12,300 -1,561 Descending Miami Center
Sun 11:57:41 PM 26.5928 -79.7444 207° Southwest 322 371 10,900 -1,600 Descending Miami Center
Sun 11:58:38 PM 26.5211 -79.7844 207° Southwest 297 342 9,100 -1,732 Descending Miami Center
Sun 11:59:18 PM 26.4744 -79.8136 209° Southwest 282 325 8,100 -653 Descending Miami Center
Mon 12:00:19 AM 26.4050 -79.8489 204° Southwest 284 327 8,000 -49 Descending Miami Center
Mon 12:01:21 AM 26.3369 -79.9028 215° Southwest 283 326 8,000  Level Miami Center
Mon 12:02:21 AM 26.2794 -79.9569 220° Southwest 281 323 8,000  Level Miami Center
Mon 12:03:20 AM 26.2175 -80.0133 219° Southwest 280 322 8,000 -956 Level Miami Center
Mon 12:04:14 AM 26.1725 -80.0744 231° Southwest 282 325 6,200 -2,032 Descending Miami Center
Mon 12:05:24 AM 26.1475 -80.1617 252° West 272 313 3,800 -1,477 Descending Miami Center
Mon 12:06:24 AM 26.1456 -80.2428 268° West 244 281 3,000 -903 Descending Miami Center
Mon 12:07:17 AM 26.1400 -80.3050 264° West 221 254 2,100 -550 Descending Miami Center
Mon 12:08:13 AM 26.0939 -80.3061 181° South 174 200 2,000 -298 Descending Miami Center
Mon 12:09:18 AM 26.0742 -80.2569 114° Southeast 170 196 1,500 -545 Descending Miami Center
Mon 12:10:25 AM 26.0753 -80.2106 88° East 123 142 800 -627 Descending Miami Center
Mon 12:12:00 AM 26.0667 -80.1500 103° East  Level FlightAware Approximate
Mon 12:19:00 AM 26.0726 -80.1527 103° East  Level Estimated

Login

Don't have an account? Register now (free) for customized features, flight alerts, and more!